Time;durP1;ratioP1;P1;durP2;ratioP2;P2;SDS_P1;SDS_P2;PMS_P1;PMS_P2;Temp;Humidity;BMP_temperature;BMP_pressure;BME280_temperature;BME280_humidity;BME280_pressure;Samples;Min_cycle;Max_cycle;Signal;HPM_P1;HPM_P2
2023/08/18 00:01:32;;;;;;;14.65;9.60;;;;;;;19.90;100.00;-18562.09;5059556;28;20053;-78
2023/08/18 00:03:58;;;;;;;15.77;9.77;;;;;;;19.79;100.00;-18559.38;5045085;28;20045;-77
2023/08/18 00:06:23;;;;;;;13.52;9.00;;;;;;;19.88;100.00;-18561.69;5046122;28;20037;-78
2023/08/18 00:08:48;;;;;;;15.82;10.05;;;;;;;20.02;100.00;-18565.50;5044193;28;20068;-77
2023/08/18 00:11:14;;;;;;;18.88;11.00;;;;;;;19.96;100.00;-18563.88;5044607;28;20130;-77
2023/08/18 00:13:39;;;;;;;15.10;10.85;;;;;;;20.03;100.00;-18565.78;5044048;28;20041;-77
2023/08/18 00:16:05;;;;;;;17.05;11.07;;;;;;;19.93;100.00;-18562.91;5043470;28;20040;-77
2023/08/18 00:18:30;;;;;;;16.58;10.05;;;;;;;19.81;100.00;-18559.78;5043442;28;20068;-77
2023/08/18 00:20:56;;;;;;;16.80;11.45;;;;;;;19.79;100.00;-18559.38;5044541;28;20076;-78
2023/08/18 00:23:21;;;;;;;17.25;11.10;;;;;;;19.97;100.00;-18564.16;5047080;28;20055;-78
2023/08/18 00:25:47;;;;;;;16.75;10.85;;;;;;;19.91;100.00;-18562.50;5044159;28;20081;-78
2023/08/18 00:28:13;;;;;;;16.77;11.02;;;;;;;19.82;100.00;-18560.19;5042549;28;20508;-78
2023/08/18 00:30:38;;;;;;;14.77;11.50;;;;;;;19.92;100.00;-18562.66;5043299;28;20036;-77
2023/08/18 00:33:04;;;;;;;18.33;11.50;;;;;;;19.97;100.00;-18564.16;5044471;28;20048;-78
2023/08/18 00:35:29;;;;;;;17.05;11.27;;;;;;;19.95;100.00;-18563.59;5043029;28;20048;-78
2023/08/18 00:37:54;;;;;;;19.25;12.23;;;;;;;19.91;100.00;-18562.50;5042784;28;20408;-77
2023/08/18 00:40:22;;;;;;;18.05;11.32;;;;;;;19.97;100.00;-18564.16;5043844;28;20133;-78
2023/08/18 00:42:48;;;;;;;16.40;11.55;;;;;;;19.98;100.00;-18564.28;5043917;28;20049;-77
2023/08/18 00:45:13;;;;;;;19.98;11.88;;;;;;;19.86;100.00;-18561.00;5043125;28;20045;-78
2023/08/18 00:47:39;;;;;;;18.92;12.80;;;;;;;19.86;100.00;-18561.16;5042897;28;20041;-78
2023/08/18 00:50:06;;;;;;;18.98;12.32;;;;;;;19.64;100.00;-18555.28;5034681;28;20056;-77
2023/08/18 00:52:31;;;;;;;19.65;12.52;;;;;;;19.68;100.00;-18556.38;5043070;28;20227;-77
2023/08/18 00:54:58;;;;;;;20.02;13.27;;;;;;;19.84;100.00;-18560.59;5043529;28;20417;-78
2023/08/18 00:57:23;;;;;;;18.63;12.48;;;;;;;19.82;100.00;-18560.19;5041460;28;20122;-78
2023/08/18 00:59:49;;;;;;;17.20;12.35;;;;;;;19.86;100.00;-18561.16;5043740;28;20075;-77
2023/08/18 01:02:17;;;;;;;18.40;11.82;;;;;;;19.83;100.00;-18560.47;5043197;28;20053;-78
2023/08/18 01:04:42;;;;;;;20.13;12.13;;;;;;;19.72;100.00;-18557.34;5041691;28;20132;-77
2023/08/18 01:07:07;;;;;;;20.17;13.13;;;;;;;19.79;100.00;-18559.25;5048173;28;20098;-77
2023/08/18 01:09:33;;;;;;;21.02;14.32;;;;;;;19.76;100.00;-18558.41;5058032;28;20131;-76
2023/08/18 01:12:42;;;;;;;19.35;14.30;;;;;;;19.79;100.00;-18559.25;5044070;28;20092;-77
2023/08/18 01:15:22;;;;;;;21.67;14.48;;;;;;;19.63;100.00;-18555.00;5039638;28;20049;-76
2023/08/18 01:17:54;;;;;;;22.48;14.40;;;;;;;19.62;100.00;-18554.75;5043426;28;20413;-78
2023/08/18 01:20:21;;;;;;;21.65;13.88;;;;;;;19.67;100.00;-18555.97;5041426;28;20037;-78
2023/08/18 01:22:58;;;;;;;20.95;15.13;;;;;;;19.69;100.00;-18556.53;5036212;28;20052;-77
2023/08/18 01:25:24;;;;;;;21.65;14.52;;;;;;;19.65;100.00;-18555.56;5043110;28;20365;-76
2023/08/18 01:27:50;;;;;;;22.52;14.75;;;;;;;19.72;100.00;-18557.34;5060669;28;20037;-78
2023/08/18 01:30:16;;;;;;;21.10;16.08;;;;;;;19.66;100.00;-18555.69;5044057;28;20045;-79
2023/08/18 01:33:08;;;;;;;22.58;15.02;;;;;;;19.92;100.00;-18562.66;5040505;28;20409;-78
2023/08/18 01:35:35;;;;;;;22.60;14.98;;;;;;;19.64;100.00;-18555.16;5040481;28;20129;-76
2023/08/18 01:38:03;;;;;;;23.02;16.15;;;;;;;19.63;100.00;-18554.88;5043794;28;20044;-78
2023/08/18 01:40:30;;;;;;;24.52;15.68;;;;;;;19.55;100.00;-18552.97;5042042;28;20075;-77
2023/08/18 01:42:58;;;;;;;25.08;15.35;;;;;;;19.60;100.00;-18554.34;5043966;28;20037;-78
2023/08/18 01:45:24;;;;;;;25.20;16.58;;;;;;;19.71;100.00;-18557.19;5041823;28;20072;-76
2023/08/18 01:47:49;;;;;;;26.13;15.30;;;;;;;19.65;100.00;-18555.56;5043820;28;20044;-78
2023/08/18 01:50:14;;;;;;;27.98;16.77;;;;;;;19.63;100.00;-18554.88;5043627;28;20478;-78
2023/08/18 01:52:40;;;;;;;27.80;16.75;;;;;;;19.71;100.00;-18557.19;5045187;28;20404;-77
2023/08/18 01:55:05;;;;;;;28.52;17.13;;;;;;;19.72;100.00;-18557.34;5044534;28;20084;-77
2023/08/18 01:57:31;;;;;;;29.50;17.92;;;;;;;19.71;100.00;-18557.06;5043039;28;20500;-77
2023/08/18 01:59:56;;;;;;;29.95;18.02;;;;;;;19.74;100.00;-18557.88;5045099;28;20087;-77
2023/08/18 02:02:22;;;;;;;30.55;17.25;;;;;;;19.47;100.00;-18550.66;5057330;28;20793;-77
2023/08/18 02:04:47;;;;;;;29.83;18.85;;;;;;;19.57;100.00;-18553.50;5044700;28;20043;-78
2023/08/18 02:07:12;;;;;;;30.52;18.52;;;;;;;19.70;100.00;-18556.94;5044364;28;20187;-77
2023/08/18 02:09:38;;;;;;;31.45;19.35;;;;;;;19.67;100.00;-18555.97;5042786;28;20102;-77
2023/08/18 02:12:03;;;;;;;35.40;19.95;;;;;;;19.65;100.00;-18555.56;5039954;28;20048;-77
2023/08/18 02:14:29;;;;;;;36.40;20.02;;;;;;;19.66;100.00;-18555.69;5042413;28;20052;-77
2023/08/18 02:16:56;;;;;;;32.13;19.60;;;;;;;19.58;100.00;-18553.66;5044195;28;20116;-78
2023/08/18 02:19:22;;;;;;;34.80;19.10;;;;;;;19.47;100.00;-18550.66;5044021;28;20044;-77
2023/08/18 02:21:47;;;;;;;35.78;21.15;;;;;;;19.75;100.00;-18558.28;5041720;28;20098;-78
2023/08/18 02:24:12;;;;;;;41.15;21.90;;;;;;;19.68;100.00;-18556.38;5043019;28;20086;-77
2023/08/18 02:26:38;;;;;;;36.67;20.65;;;;;;;19.81;100.00;-18559.91;5041513;28;20616;-78
2023/08/18 02:29:03;;;;;;;39.13;21.40;;;;;;;19.65;100.00;-18555.41;5044412;28;20049;-77
2023/08/18 02:31:29;;;;;;;33.38;20.33;;;;;;;19.77;100.00;-18558.69;5042344;28;20052;-77
2023/08/18 02:33:54;;;;;;;37.83;22.10;;;;;;;19.70;100.00;-18556.78;5043291;28;20071;-77
2023/08/18 02:36:22;;;;;;;33.17;20.25;;;;;;;19.64;100.00;-18555.28;5037599;28;20041;-77
2023/08/18 02:38:47;;;;;;;36.08;20.42;;;;;;;19.60;100.00;-18554.34;5041383;28;20048;-77
2023/08/18 02:41:12;;;;;;;33.90;19.60;;;;;;;19.52;100.00;-18552.03;5055509;28;20405;-78
2023/08/18 02:43:38;;;;;;;34.50;20.58;;;;;;;19.36;100.00;-18547.78;5056339;28;20044;-77
2023/08/18 02:46:04;;;;;;;38.55;21.20;;;;;;;19.32;100.00;-18546.84;5044070;28;20419;-77
2023/08/18 02:48:30;;;;;;;38.75;20.65;;;;;;;19.45;100.00;-18550.25;5039655;28;20044;-77
2023/08/18 02:51:08;;;;;;;37.00;19.73;;;;;;;19.45;100.00;-18550.25;5043427;28;20041;-77
2023/08/18 02:53:35;;;;;;;38.33;20.65;;;;;;;19.39;100.00;-18548.75;5040351;28;20045;-78
2023/08/18 02:56:01;;;;;;;42.78;22.48;;;;;;;19.60;100.00;-18554.19;5042120;28;20248;-77
2023/08/18 02:58:28;;;;;;;37.58;20.98;;;;;;;19.52;100.00;-18552.16;5044225;28;20041;-77
2023/08/18 03:01:02;;;;;;;38.17;21.75;;;;;;;19.57;100.00;-18553.38;5043599;28;20049;-77
2023/08/18 03:03:27;;;;;;;39.40;20.02;;;;;;;19.48;100.00;-18551.06;5041096;28;20044;-77
2023/08/18 03:05:53;;;;;;;37.28;21.23;;;;;;;19.49;100.00;-18551.19;5043501;28;20094;-77
2023/08/18 03:08:18;;;;;;;36.25;20.80;;;;;;;19.54;100.00;-18552.69;5043686;28;20110;-77
2023/08/18 03:10:44;;;;;;;37.20;20.88;;;;;;;19.48;100.00;-18550.94;5042212;28;20060;-77
2023/08/18 03:13:09;;;;;;;37.65;21.30;;;;;;;19.59;100.00;-18554.06;5043053;28;20053;-77
2023/08/18 03:15:40;;;;;;;38.58;22.23;;;;;;;19.69;100.00;-18556.53;5048561;28;20041;-78
2023/08/18 03:18:06;;;;;;;37.45;20.40;;;;;;;19.65;100.00;-18555.41;5038751;28;20139;-77
2023/08/18 03:20:31;;;;;;;38.53;22.02;;;;;;;19.69;100.00;-18556.53;5041001;28;20120;-78
2023/08/18 03:22:57;;;;;;;46.92;24.40;;;;;;;19.83;100.00;-18560.34;5043501;28;20171;-78
2023/08/18 03:25:22;;;;;;;42.65;23.40;;;;;;;19.73;100.00;-18557.59;5038961;28;20045;-78
2023/08/18 03:27:47;;;;;;;41.42;22.45;;;;;;;19.61;100.00;-18554.59;5041880;28;20040;-77
2023/08/18 03:30:13;;;;;;;40.20;21.77;;;;;;;19.67;100.00;-18556.09;5042319;28;20484;-77
2023/08/18 03:32:38;;;;;;;40.22;22.48;;;;;;;19.67;100.00;-18555.97;5056585;28;20068;-78
2023/08/18 03:35:04;;;;;;;38.08;21.17;;;;;;;19.70;100.00;-18556.94;5042889;28;20506;-77
2023/08/18 03:37:29;;;;;;;42.45;22.70;;;;;;;19.75;100.00;-18558.16;5040376;28;20146;-77
2023/08/18 03:39:55;;;;;;;37.85;22.02;;;;;;;19.72;100.00;-18557.47;5058135;28;20044;-77
2023/08/18 03:42:21;;;;;;;35.10;19.98;;;;;;;19.63;100.00;-18555.00;5043004;28;20232;-78
2023/08/18 03:44:47;;;;;;;38.28;21.15;;;;;;;19.67;100.00;-18555.97;5040719;28;20041;-77
2023/08/18 03:47:12;;;;;;;41.13;22.35;;;;;;;19.66;100.00;-18555.69;5040532;28;20107;-77
2023/08/18 03:49:38;;;;;;;40.47;21.65;;;;;;;19.61;100.00;-18554.59;5040977;28;20094;-78
2023/08/18 03:52:03;;;;;;;38.90;21.88;;;;;;;19.65;100.00;-18555.41;5042204;28;20500;-79
2023/08/18 03:54:29;;;;;;;37.80;20.13;;;;;;;19.67;100.00;-18556.09;5057136;28;20041;-77
2023/08/18 03:56:54;;;;;;;38.60;19.77;;;;;;;19.65;100.00;-18555.41;5042401;28;20048;-80
2023/08/18 03:59:20;;;;;;;42.60;21.50;;;;;;;19.61;100.00;-18554.47;5041521;28;20048;-77
2023/08/18 04:01:45;;;;;;;41.92;21.73;;;;;;;19.60;100.00;-18554.34;5043438;28;20106;-76
2023/08/18 04:04:10;;;;;;;45.90;22.33;;;;;;;19.70;100.00;-18556.78;5057544;28;20041;-77
2023/08/18 04:06:36;;;;;;;41.65;22.13;;;;;;;19.73;100.00;-18557.75;5039430;28;21985;-76
2023/08/18 04:09:08;;;;;;;37.97;20.83;;;;;;;19.83;100.00;-18560.47;5042645;28;20200;-76
2023/08/18 04:11:34;;;;;;;39.20;20.92;;;;;;;19.53;100.00;-18552.44;5040068;28;20480;-77
2023/08/18 04:14:00;;;;;;;41.35;21.27;;;;;;;19.66;100.00;-18555.84;5042737;28;20095;-76
2023/08/18 04:16:26;;;;;;;41.40;21.02;;;;;;;19.65;100.00;-18555.56;5039697;28;20036;-77
2023/08/18 04:18:51;;;;;;;41.72;21.73;;;;;;;19.62;100.00;-18554.75;5042256;28;20128;-77
2023/08/18 04:21:16;;;;;;;42.40;21.13;;;;;;;19.68;100.00;-18556.25;5042227;28;20072;-77
2023/08/18 04:23:42;;;;;;;44.97;22.42;;;;;;;19.71;100.00;-18557.06;5040531;28;20338;-78
2023/08/18 04:26:07;;;;;;;43.72;22.38;;;;;;;19.74;100.00;-18557.88;5035592;28;20033;-76
2023/08/18 04:28:32;;;;;;;45.95;23.23;;;;;;;19.61;100.00;-18554.47;5054628;28;20041;-77
2023/08/18 04:30:58;;;;;;;43.00;22.80;;;;;;;19.61;100.00;-18554.47;5039833;28;20037;-78
2023/08/18 04:33:24;;;;;;;43.75;23.13;;;;;;;19.68;100.00;-18556.25;5038651;28;20515;-76
2023/08/18 04:35:49;;;;;;;44.83;23.42;;;;;;;19.76;100.00;-18558.41;5036443;28;20139;-76
2023/08/18 04:38:15;;;;;;;42.30;23.65;;;;;;;19.92;100.00;-18562.78;5054169;28;20523;-76
2023/08/18 04:40:40;;;;;;;45.42;23.65;;;;;;;19.72;100.00;-18557.47;5038033;28;20060;-76
2023/08/18 04:43:05;;;;;;;43.50;22.92;;;;;;;19.54;100.00;-18552.69;5037652;28;20040;-77
2023/08/18 04:45:31;;;;;;;47.90;24.80;;;;;;;19.56;100.00;-18553.25;5038593;28;20052;-76
2023/08/18 04:47:57;;;;;;;43.72;22.05;;;;;;;19.58;100.00;-18553.78;5038923;28;20045;-76
2023/08/18 04:50:22;;;;;;;45.50;23.55;;;;;;;19.66;100.00;-18555.84;5038513;28;20052;-76
2023/08/18 04:52:47;;;;;;;44.33;22.52;;;;;;;19.53;100.00;-18552.44;5038188;28;20061;-77
2023/08/18 04:55:13;;;;;;;44.15;21.15;;;;;;;19.46;100.00;-18550.53;5037033;28;20044;-76
2023/08/18 04:57:38;;;;;;;48.00;22.40;;;;;;;19.56;100.00;-18553.25;5037519;28;20689;-77
2023/08/18 05:00:07;;;;;;;45.35;23.15;;;;;;;19.55;100.00;-18552.97;5040137;28;20132;-76
2023/08/18 05:02:32;;;;;;;47.28;23.15;;;;;;;19.65;100.00;-18555.41;5036490;28;20516;-77
2023/08/18 05:04:58;;;;;;;43.60;22.95;;;;;;;19.51;100.00;-18551.88;5041466;28;20045;-78
2023/08/18 05:07:23;;;;;;;43.45;21.50;;;;;;;19.74;100.00;-18557.88;5040821;28;20251;-78
2023/08/18 05:09:49;;;;;;;42.40;21.80;;;;;;;19.81;100.00;-18559.78;5040061;28;20145;-77
2023/08/18 05:12:17;;;;;;;47.25;22.30;;;;;;;19.64;100.00;-18555.28;5046696;28;20037;-77
2023/08/18 05:14:42;;;;;;;45.20;21.67;;;;;;;19.75;100.00;-18558.28;5041453;28;20385;-77
2023/08/18 05:17:08;;;;;;;44.55;22.42;;;;;;;19.84;100.00;-18560.75;5042768;28;20110;-77
2023/08/18 05:19:33;;;;;;;43.90;21.90;;;;;;;19.79;100.00;-18559.38;5043659;28;20527;-76
2023/08/18 05:22:00;;;;;;;44.00;22.35;;;;;;;19.83;100.00;-18560.34;5045312;28;20041;-77
2023/08/18 05:24:25;;;;;;;42.45;21.20;;;;;;;19.90;100.00;-18562.09;5044918;28;20416;-77
2023/08/18 05:26:50;;;;;;;38.60;21.48;;;;;;;19.89;100.00;-18561.97;5046598;28;20033;-77
2023/08/18 05:29:16;;;;;;;36.92;21.48;;;;;;;19.87;100.00;-18561.41;5063212;28;20045;-75
2023/08/18 05:31:43;;;;;;;35.90;20.70;;;;;;;19.78;100.00;-18558.97;5047747;28;20052;-77
2023/08/18 05:34:09;;;;;;;36.20;21.50;;;;;;;19.86;100.00;-18561.00;5048172;28;20500;-77
2023/08/18 05:36:34;;;;;;;34.22;19.42;;;;;;;19.84;100.00;-18560.59;5031181;28;20107;-78
2023/08/18 05:38:59;;;;;;;31.73;18.25;;;;;;;19.77;100.00;-18558.84;5006358;28;20042;-76
2023/08/18 05:41:25;;;;;;;34.08;19.17;;;;;;;19.78;100.00;-18558.97;5005266;28;20509;-77
2023/08/18 05:43:50;;;;;;;35.25;20.48;;;;;;;19.81;100.00;-18559.78;5006836;28;20445;-77
2023/08/18 05:46:16;;;;;;;34.78;19.88;;;;;;;20.04;100.00;-18566.03;4997219;28;20042;-77
2023/08/18 05:48:41;;;;;;;29.45;18.48;;;;;;;19.88;100.00;-18561.69;5002412;28;20054;-77
2023/08/18 05:51:06;;;;;;;33.58;18.33;;;;;;;19.90;100.00;-18562.22;5006240;28;20100;-77
2023/08/18 05:53:32;;;;;;;27.42;17.42;;;;;;;20.09;100.00;-18567.13;4988202;28;20093;-77
2023/08/18 05:55:58;;;;;;;33.45;16.83;;;;;;;19.97;100.00;-18564.16;4989210;28;20049;-76
2023/08/18 05:58:23;;;;;;;28.55;16.70;;;;;;;19.99;100.00;-18564.56;5004726;28;20053;-77
2023/08/18 06:00:52;;;;;;;29.75;17.58;;;;;;;20.06;100.00;-18566.59;5006510;28;20041;-76
2023/08/18 06:03:20;;;;;;;28.23;17.10;;;;;;;20.15;100.00;-18568.78;5027977;28;20083;-77
2023/08/18 06:05:49;;;;;;;27.97;16.73;;;;;;;20.27;100.00;-18572.03;5048284;28;20041;-77
2023/08/18 06:08:15;;;;;;;26.63;15.82;;;;;;;20.21;100.00;-18570.41;5046681;28;20631;-77
2023/08/18 06:10:41;;;;;;;30.08;16.15;;;;;;;20.21;100.00;-18570.41;5046692;28;20948;-77
2023/08/18 06:13:06;;;;;;;30.98;17.02;;;;;;;20.30;100.00;-18572.84;5048854;28;20048;-78
2023/08/18 06:15:32;;;;;;;27.00;15.93;;;;;;;20.32;100.00;-18573.41;5047295;28;20116;-76
2023/08/18 06:17:57;;;;;;;28.92;17.00;;;;;;;20.27;100.00;-18572.03;5048325;28;20041;-78
2023/08/18 06:20:22;;;;;;;26.90;16.35;;;;;;;20.38;100.00;-18575.03;5046734;28;20053;-77
2023/08/18 06:22:48;;;;;;;26.75;15.07;;;;;;;20.45;100.00;-18576.94;5042946;28;20064;-77
2023/08/18 06:25:13;;;;;;;27.35;15.70;;;;;;;20.32;100.00;-18573.41;5044738;28;20133;-77
2023/08/18 06:27:40;;;;;;;28.48;17.23;;;;;;;20.38;100.00;-18575.03;5041047;28;20048;-78
2023/08/18 06:30:06;;;;;;;25.15;14.65;;;;;;;20.34;100.00;-18573.94;5047299;28;20040;-77
2023/08/18 06:32:33;;;;;;;29.05;17.30;;;;;;;20.49;100.00;-18578.03;5050640;28;20039;-78
2023/08/18 06:34:58;;;;;;;32.33;17.67;;;;;;;20.31;100.00;-18573.13;5034763;28;20082;-77
2023/08/18 06:37:25;;;;;;;29.13;16.95;;;;;;;20.26;100.00;-18571.75;5061602;28;20068;-77
2023/08/18 06:39:50;;;;;;;32.05;17.40;;;;;;;20.26;100.00;-18571.75;5048165;28;20041;-78
2023/08/18 06:42:15;;;;;;;30.20;17.52;;;;;;;20.19;100.00;-18570.00;5063101;28;20519;-77
2023/08/18 06:44:41;;;;;;;30.42;16.35;;;;;;;20.35;100.00;-18574.09;5047540;28;20052;-78
2023/08/18 06:47:06;;;;;;;34.63;18.60;;;;;;;20.18;100.00;-18569.59;5046766;28;20040;-78
2023/08/18 06:49:32;;;;;;;28.40;16.42;;;;;;;20.21;100.00;-18570.41;5047434;28;20037;-77
2023/08/18 06:51:57;;;;;;;29.60;16.70;;;;;;;20.28;100.00;-18572.31;5047995;28;20037;-77
2023/08/18 06:54:22;;;;;;;28.42;15.80;;;;;;;20.22;100.00;-18570.69;5062546;28;20052;-77
2023/08/18 06:56:48;;;;;;;27.58;16.27;;;;;;;20.24;100.00;-18571.34;5047632;28;20044;-77
2023/08/18 06:59:13;;;;;;;26.58;15.48;;;;;;;20.15;100.00;-18568.91;5047215;28;20060;-77
2023/08/18 07:01:40;;;;;;;24.75;13.82;;;;;;;20.00;100.00;-18564.81;5047615;28;20045;-77
2023/08/18 07:04:06;;;;;;;27.23;15.65;;;;;;;20.12;100.00;-18567.97;5047793;28;20052;-77
2023/08/18 07:06:32;;;;;;;26.35;14.57;;;;;;;20.10;100.00;-18567.53;5046659;28;20040;-77
2023/08/18 07:08:57;;;;;;;24.85;14.80;;;;;;;19.91;100.00;-18562.50;5047930;28;20045;-77
2023/08/18 07:11:22;;;;;;;29.10;15.02;;;;;;;19.87;100.00;-18561.41;5046689;28;20082;-77
2023/08/18 07:13:48;;;;;;;27.08;14.18;;;;;;;19.81;100.00;-18559.78;5047245;28;20140;-77
2023/08/18 07:16:13;;;;;;;24.75;13.90;;;;;;;19.67;100.00;-18556.09;5039234;28;20497;-77
2023/08/18 07:18:38;;;;;;;29.48;16.08;;;;;;;19.69;100.00;-18556.53;5047161;28;20037;-78
2023/08/18 07:21:04;;;;;;;25.70;14.90;;;;;;;19.63;100.00;-18555.00;5047407;28;20400;-77
2023/08/18 07:23:29;;;;;;;26.58;15.55;;;;;;;19.61;100.00;-18554.47;5044996;28;20041;-78
2023/08/18 07:25:55;;;;;;;28.05;14.95;;;;;;;19.57;100.00;-18553.50;5061265;28;20489;-78
2023/08/18 07:28:21;;;;;;;26.33;15.32;;;;;;;19.66;100.00;-18555.69;5044598;28;20071;-77
2023/08/18 07:30:46;;;;;;;28.83;16.60;;;;;;;19.68;100.00;-18556.25;5042861;28;20053;-77
2023/08/18 07:33:12;;;;;;;23.30;13.80;;;;;;;19.64;100.00;-18555.28;5060162;28;20505;-77
2023/08/18 07:35:38;;;;;;;25.85;14.63;;;;;;;19.66;100.00;-18555.69;5057659;28;20049;-77
2023/08/18 07:38:03;;;;;;;25.25;14.88;;;;;;;19.68;100.00;-18556.38;5058004;28;20045;-78
2023/08/18 07:40:28;;;;;;;26.90;14.82;;;;;;;19.67;100.00;-18555.97;5042810;28;20110;-78
2023/08/18 07:42:54;;;;;;;27.15;15.68;;;;;;;19.68;100.00;-18556.38;5047078;28;20033;-77
2023/08/18 07:45:19;;;;;;;25.65;14.85;;;;;;;19.70;100.00;-18556.94;5043319;28;20111;-77
2023/08/18 07:47:46;;;;;;;29.60;16.30;;;;;;;19.75;100.00;-18558.16;5043508;28;20500;-77
2023/08/18 07:50:12;;;;;;;28.90;13.82;;;;;;;19.72;100.00;-18557.47;5040345;28;20120;-77
2023/08/18 07:52:38;;;;;;;25.27;15.07;;;;;;;19.85;100.00;-18560.88;5041563;28;20048;-77
2023/08/18 07:55:05;;;;;;;27.65;15.07;;;;;;;19.81;100.00;-18559.78;5058925;28;20044;-77
2023/08/18 07:57:31;;;;;;;26.83;13.80;;;;;;;19.89;100.00;-18561.97;5042402;28;20110;-77
2023/08/18 07:59:56;;;;;;;22.35;13.90;;;;;;;20.08;100.00;-18566.88;5044334;28;20049;-77
2023/08/18 08:02:22;;;;;;;25.35;14.65;;;;;;;20.10;100.00;-18567.41;5034880;28;20037;-77
2023/08/18 08:04:47;;;;;;;23.83;14.98;;;;;;;20.16;100.00;-18569.03;5042544;28;20045;-78
2023/08/18 08:07:13;;;;;;;25.20;13.43;;;;;;;19.99;100.00;-18564.56;5043983;28;20052;-77
2023/08/18 08:09:39;;;;;;;24.48;13.70;;;;;;;20.02;100.00;-18565.50;5042438;28;20065;-77
2023/08/18 08:12:05;;;;;;;25.48;14.50;;;;;;;20.12;100.00;-18568.09;5038988;28;20058;-78
2023/08/18 08:14:30;;;;;;;24.48;14.68;;;;;;;20.27;100.00;-18572.03;5042613;28;20472;-77
2023/08/18 08:16:56;;;;;;;24.98;13.13;;;;;;;20.25;100.00;-18571.50;5043640;28;20456;-77
2023/08/18 08:19:21;;;;;;;27.20;15.60;;;;;;;20.38;100.00;-18575.03;5043095;28;20072;-77
2023/08/18 08:21:47;;;;;;;25.90;15.02;;;;;;;20.53;100.00;-18578.84;5042168;28;20051;-78
2023/08/18 08:24:12;;;;;;;27.77;15.07;;;;;;;20.57;100.00;-18580.06;5059198;28;20532;-77
2023/08/18 08:26:37;;;;;;;26.17;16.08;;;;;;;20.72;100.00;-18584.16;5041534;28;20131;-78
2023/08/18 08:29:03;;;;;;;28.27;14.65;;;;;;;20.71;100.00;-18583.75;5043998;28;20041;-77
2023/08/18 08:31:28;;;;;;;24.95;14.70;;;;;;;20.71;100.00;-18583.75;5042353;28;20044;-78
2023/08/18 08:33:54;;;;;;;27.05;15.45;;;;;;;21.15;100.00;-18595.44;5044068;28;20041;-76
2023/08/18 08:36:19;;;;;;;26.17;13.80;;;;;;;21.26;100.00;-18598.44;5042164;28;20134;-76
2023/08/18 08:38:44;;;;;;;25.90;15.80;;;;;;;21.45;100.00;-18603.31;5043078;28;20037;-76
2023/08/18 08:41:10;;;;;;;24.75;15.68;;;;;;;21.60;100.00;-18607.53;5042719;28;20064;-77
2023/08/18 08:43:35;;;;;;;27.65;15.68;;;;;;;21.70;100.00;-18610.00;5057446;28;20404;-76
2023/08/18 08:46:01;;;;;;;25.80;14.10;;;;;;;21.69;100.00;-18609.84;5043560;28;20124;-76
2023/08/18 08:48:34;;;;;;;24.80;14.57;;;;;;;21.79;100.00;-18612.56;5041801;28;20045;-76
2023/08/18 08:51:03;;;;;;;23.70;13.45;;;;;;;21.76;100.00;-18611.75;5043929;28;20068;-77
2023/08/18 08:53:37;;;;;;;23.45;14.70;;;;;;;21.60;100.00;-18607.41;5040287;28;20048;-77
2023/08/18 08:56:03;;;;;;;25.70;14.75;;;;;;;21.76;100.00;-18611.63;5041822;28;20041;-76
2023/08/18 08:58:31;;;;;;;25.13;14.63;;;;;;;21.74;100.00;-18611.22;5041738;28;20074;-77
2023/08/18 09:01:01;;;;;;;23.65;15.30;;;;;;;21.72;100.00;-18610.66;5043630;28;20110;-76
2023/08/18 09:03:28;;;;;;;26.13;15.48;;;;;;;21.85;100.00;-18614.19;5046076;28;20463;-77
2023/08/18 09:05:54;;;;;;;21.15;13.95;;;;;;;21.94;100.00;-18616.38;5046200;28;20454;-76
2023/08/18 09:08:19;;;;;;;22.27;14.50;;;;;;;22.02;100.00;-18618.53;5044731;28;20037;-76
2023/08/18 09:10:45;;;;;;;23.67;15.18;;;;;;;21.84;100.00;-18613.78;5050118;28;20056;-76
2023/08/18 09:13:12;;;;;;;25.33;15.95;;;;;;;21.93;100.00;-18616.25;5047709;28;20049;-76
2023/08/18 09:15:47;;;;;;;26.60;15.48;;;;;;;21.94;100.00;-18616.50;5044922;28;20045;-76
2023/08/18 09:18:13;;;;;;;24.30;14.18;;;;;;;21.80;100.00;-18612.69;5047719;28;20047;-77
2023/08/18 09:20:38;;;;;;;25.58;16.02;;;;;;;21.93;100.00;-18616.25;5045684;28;20049;-75
2023/08/18 09:23:04;;;;;;;21.92;15.35;;;;;;;22.11;100.00;-18621.00;5047459;28;20060;-77
2023/08/18 09:25:35;;;;;;;20.73;14.50;;;;;;;21.95;100.00;-18616.78;5044971;28;20044;-76
2023/08/18 09:28:03;;;;;;;25.40;14.82;;;;;;;21.89;100.00;-18615.16;5062943;28;20137;-76
2023/08/18 09:30:30;;;;;;;23.38;15.63;;;;;;;22.03;100.00;-18618.81;5045547;28;20041;-76
2023/08/18 09:32:55;;;;;;;24.83;16.20;;;;;;;22.09;100.00;-18620.44;5046814;28;20348;-76
2023/08/18 09:35:20;;;;;;;21.80;15.25;;;;;;;22.19;100.00;-18623.16;5044768;28;20136;-76
2023/08/18 09:37:57;;;;;;;22.83;14.77;;;;;;;22.08;100.00;-18620.19;5045040;28;20132;-76
2023/08/18 09:40:23;;;;;;;23.25;15.15;;;;;;;22.33;100.00;-18626.84;5046404;28;20051;-76
2023/08/18 09:42:48;;;;;;;25.02;15.05;;;;;;;22.42;100.00;-18629.28;5047441;28;20416;-76
2023/08/18 09:45:14;;;;;;;23.55;14.82;;;;;;;22.51;100.00;-18631.59;5047046;28;20041;-76
2023/08/18 09:47:42;;;;;;;22.20;15.90;;;;;;;22.65;100.00;-18635.25;5045195;28;20041;-75
2023/08/18 09:50:10;;;;;;;21.92;15.50;;;;;;;22.72;100.00;-18637.28;5047078;28;20057;-76
2023/08/18 09:52:41;;;;;;;24.02;15.77;;;;;;;22.77;100.00;-18638.50;5043724;28;20481;-76
2023/08/18 09:55:11;;;;;;;23.35;16.38;;;;;;;22.75;100.00;-18638.09;5040159;28;20098;-76
2023/08/18 09:57:52;;;;;;;23.92;15.15;;;;;;;22.97;100.00;-18643.94;5043387;28;20422;-76
2023/08/18 10:00:19;;;;;;;25.83;16.17;;;;;;;23.01;100.00;-18644.75;5057228;28;20049;-76
2023/08/18 10:02:48;;;;;;;23.17;15.18;;;;;;;23.06;100.00;-18646.25;5047219;28;20083;-76
2023/08/18 10:05:15;;;;;;;24.63;16.53;;;;;;;23.15;100.00;-18648.56;5045990;28;20041;-78
2023/08/18 10:07:41;;;;;;;23.73;17.00;;;;;;;23.25;100.00;-18651.13;5061308;28;20523;-76
2023/08/18 10:10:08;;;;;;;22.88;16.70;;;;;;;23.38;100.00;-18654.66;5061864;28;20045;-76
2023/08/18 10:12:33;;;;;;;24.50;16.58;;;;;;;23.49;100.00;-18657.50;5044718;28;20040;-77
2023/08/18 10:15:00;;;;;;;23.23;15.98;;;;;;;23.53;100.00;-18658.59;5044878;28;20044;-77
2023/08/18 10:17:26;;;;;;;21.95;15.95;;;;;;;23.63;100.00;-18661.44;5044781;28;20048;-77
2023/08/18 10:19:53;;;;;;;22.30;15.07;;;;;;;23.76;100.00;-18664.84;5042848;28;20041;-77
2023/08/18 10:22:20;;;;;;;22.98;15.02;;;;;;;23.79;100.00;-18665.50;5045844;28;20160;-77
2023/08/18 10:24:49;;;;;;;22.67;15.52;;;;;;;23.98;100.00;-18670.53;5045160;28;20073;-78
2023/08/18 10:27:26;;;;;;;22.40;15.85;;;;;;;24.08;100.00;-18673.25;5049124;28;20044;-77
2023/08/18 10:30:20;;;;;;;21.95;15.77;;;;;;;24.09;100.00;-18673.66;5046277;28;20515;-78
2023/08/18 10:32:46;;;;;;;23.50;15.68;;;;;;;24.24;100.00;-18677.56;5047919;28;20059;-77
2023/08/18 10:35:17;;;;;;;19.27;14.20;;;;;;;24.40;100.00;-18681.78;5048865;28;20408;-78
2023/08/18 10:37:44;;;;;;;20.85;13.75;;;;;;;24.48;100.00;-18683.94;5046551;28;20045;-77
2023/08/18 10:40:09;;;;;;;18.38;12.07;;;;;;;24.48;100.00;-18683.94;5051372;28;20053;-77
2023/08/18 10:42:36;;;;;;;19.52;12.35;;;;;;;24.45;100.00;-18683.13;5047194;28;20045;-78
2023/08/18 10:45:05;;;;;;;17.17;12.68;;;;;;;24.70;100.00;-18689.63;5050793;28;20033;-77
2023/08/18 10:47:34;;;;;;;17.00;12.60;;;;;;;24.78;100.00;-18691.81;5050065;28;20516;-77
2023/08/18 10:50:00;;;;;;;18.73;11.95;;;;;;;24.60;100.00;-18687.06;5051305;28;20377;-77
2023/08/18 10:52:30;;;;;;;16.00;11.85;;;;;;;24.68;100.00;-18689.09;5042420;28;20037;-77
2023/08/18 10:54:56;;;;;;;16.48;12.88;;;;;;;24.75;100.00;-18691.13;5051978;28;20067;-77
2023/08/18 10:57:23;;;;;;;16.58;12.13;;;;;;;24.67;100.00;-18688.81;5064920;28;20048;-77
2023/08/18 10:59:49;;;;;;;14.88;10.77;;;;;;;24.79;100.00;-18691.94;5041135;28;20044;-77